Terminal Aerodrome Forecast
Issued by NWS

Home | Current Version | Previous Version | Text Only | Print | Product List | Glossary On
Versions: 1 2 3 4 5 6 7 8 9 10 11 12 13 14 15 16 17 18 19 20 21 22 23 24 25 26
000
FTUS43 KLSX 240100 AAA
TAFSUS
TAF AMD
KSUS 240106Z 2401/2424 18005KT 3SM BR OVC008
      TEMPO 2401/2403 1/2SM FG VV003
     FM240700 26013KT 4SM -RA BR OVC008
     FM241100 28020G30KT P6SM OVC015
     FM242200 27014G24KT P6SM SCT015 OVC040=

USA.gov is the U.S. government's official web portal to all federal, state and local government web resources and services.